sensor_id;sensor_type;location;lat;lon;timestamp;temperature;humidity
53314;DHT22;39202;51.468;7.146;2022-10-20T00:02:51;25.00;45.00
53314;DHT22;39202;51.468;7.146;2022-10-20T00:08:31;25.00;44.70
53314;DHT22;39202;51.468;7.146;2022-10-20T00:13:38;25.00;45.10
53314;DHT22;39202;51.468;7.146;2022-10-20T00:18:48;25.00;44.80
53314;DHT22;39202;51.468;7.146;2022-10-20T00:30:37;24.90;45.10
53314;DHT22;39202;51.468;7.146;2022-10-20T00:35:41;24.90;45.00
53314;DHT22;39202;51.468;7.146;2022-10-20T00:41:06;24.90;45.00
53314;DHT22;39202;51.468;7.146;2022-10-20T00:46:32;24.90;44.80
53314;DHT22;39202;51.468;7.146;2022-10-20T00:51:37;25.00;45.10
53314;DHT22;39202;51.468;7.146;2022-10-20T00:56:41;25.70;45.60
53314;DHT22;39202;51.468;7.146;2022-10-20T01:01:44;24.90;45.10
53314;DHT22;39202;51.468;7.146;2022-10-20T01:06:46;26.90;46.00
53314;DHT22;39202;51.468;7.146;2022-10-20T01:11:53;24.80;44.60
53314;DHT22;39202;51.468;7.146;2022-10-20T01:17:05;25.00;45.20
53314;DHT22;39202;51.468;7.146;2022-10-20T01:22:20;24.80;45.00
53314;DHT22;39202;51.468;7.146;2022-10-20T01:27:32;25.90;45.80
53314;DHT22;39202;51.468;7.146;2022-10-20T01:32:55;24.80;45.20
53314;DHT22;39202;51.468;7.146;2022-10-20T01:38:05;24.80;45.20
53314;DHT22;39202;51.468;7.146;2022-10-20T01:43:13;24.90;45.20
53314;DHT22;39202;51.468;7.146;2022-10-20T01:48:20;24.50;45.10
53314;DHT22;39202;51.468;7.146;2022-10-20T01:53:23;25.70;45.80
53314;DHT22;39202;51.468;7.146;2022-10-20T02:03:55;24.70;45.20
53314;DHT22;39202;51.468;7.146;2022-10-20T02:09:00;24.50;45.00
53314;DHT22;39202;51.468;7.146;2022-10-20T02:14:06;25.20;45.40
53314;DHT22;39202;51.468;7.146;2022-10-20T02:19:12;26.20;46.20
53314;DHT22;39202;51.468;7.146;2022-10-20T02:24:16;24.10;45.00
53314;DHT22;39202;51.468;7.146;2022-10-20T02:29:25;24.70;45.00
53314;DHT22;39202;51.468;7.146;2022-10-20T02:34:28;24.80;45.50
53314;DHT22;39202;51.468;7.146;2022-10-20T02:39:30;25.30;45.10
53314;DHT22;39202;51.468;7.146;2022-10-20T02:44:33;25.50;45.20
53314;DHT22;39202;51.468;7.146;2022-10-20T02:49:35;24.60;44.80
53314;DHT22;39202;51.468;7.146;2022-10-20T02:54:36;24.60;45.00
53314;DHT22;39202;51.468;7.146;2022-10-20T02:59:39;24.70;44.90
53314;DHT22;39202;51.468;7.146;2022-10-20T03:04:41;25.40;45.20
53314;DHT22;39202;51.468;7.146;2022-10-20T03:09:43;25.30;45.10
53314;DHT22;39202;51.468;7.146;2022-10-20T03:14:46;24.60;44.90
53314;DHT22;39202;51.468;7.146;2022-10-20T03:19:48;25.80;45.30
53314;DHT22;39202;51.468;7.146;2022-10-20T03:24:50;24.50;44.80
53314;DHT22;39202;51.468;7.146;2022-10-20T03:29:53;24.60;50.10
53314;DHT22;39202;51.468;7.146;2022-10-20T03:34:57;24.60;45.10
53314;DHT22;39202;51.468;7.146;2022-10-20T03:40:05;24.60;44.90
53314;DHT22;39202;51.468;7.146;2022-10-20T03:45:09;24.60;45.30
53314;DHT22;39202;51.468;7.146;2022-10-20T03:50:11;24.50;47.50
53314;DHT22;39202;51.468;7.146;2022-10-20T03:55:13;24.60;44.90
53314;DHT22;39202;51.468;7.146;2022-10-20T04:00:16;24.50;44.90
53314;DHT22;39202;51.468;7.146;2022-10-20T04:05:19;24.50;44.90
53314;DHT22;39202;51.468;7.146;2022-10-20T04:10:21;24.50;45.10
53314;DHT22;39202;51.468;7.146;2022-10-20T04:15:24;24.50;44.90
53314;DHT22;39202;51.468;7.146;2022-10-20T04:20:25;24.50;44.90
53314;DHT22;39202;51.468;7.146;2022-10-20T04:25:27;24.50;44.80
53314;DHT22;39202;51.468;7.146;2022-10-20T04:30:30;24.50;44.90
53314;DHT22;39202;51.468;7.146;2022-10-20T04:35:32;24.20;44.50
53314;DHT22;39202;51.468;7.146;2022-10-20T04:40:34;25.10;45.10
53314;DHT22;39202;51.468;7.146;2022-10-20T04:45:37;25.20;45.10
53314;DHT22;39202;51.468;7.146;2022-10-20T04:50:39;24.40;44.90
53314;DHT22;39202;51.468;7.146;2022-10-20T04:55:41;24.50;44.90
53314;DHT22;39202;51.468;7.146;2022-10-20T05:00:44;23.90;44.90
53314;DHT22;39202;51.468;7.146;2022-10-20T05:05:46;24.40;45.00
53314;DHT22;39202;51.468;7.146;2022-10-20T05:10:48;24.60;46.20
53314;DHT22;39202;51.468;7.146;2022-10-20T05:15:52;24.20;44.80
53314;DHT22;39202;51.468;7.146;2022-10-20T05:20:54;24.40;45.00
53314;DHT22;39202;51.468;7.146;2022-10-20T05:25:56;25.00;45.20
53314;DHT22;39202;51.468;7.146;2022-10-20T05:36:06;24.40;45.20
53314;DHT22;39202;51.468;7.146;2022-10-20T05:41:09;24.30;45.50
53314;DHT22;39202;51.468;7.146;2022-10-20T05:46:11;24.30;45.30
53314;DHT22;39202;51.468;7.146;2022-10-20T05:51:16;24.30;45.30
53314;DHT22;39202;51.468;7.146;2022-10-20T05:56:19;24.30;45.30
53314;DHT22;39202;51.468;7.146;2022-10-20T06:01:22;24.30;45.30
53314;DHT22;39202;51.468;7.146;2022-10-20T06:06:28;24.30;45.30
53314;DHT22;39202;51.468;7.146;2022-10-20T06:11:30;24.30;45.40
53314;DHT22;39202;51.468;7.146;2022-10-20T06:16:32;24.30;45.40
53314;DHT22;39202;51.468;7.146;2022-10-20T06:21:36;24.30;45.50
53314;DHT22;39202;51.468;7.146;2022-10-20T06:26:38;24.30;45.50
53314;DHT22;39202;51.468;7.146;2022-10-20T06:31:41;24.30;45.60
53314;DHT22;39202;51.468;7.146;2022-10-20T06:36:46;24.30;45.40
53314;DHT22;39202;51.468;7.146;2022-10-20T06:41:48;24.40;45.40
53314;DHT22;39202;51.468;7.146;2022-10-20T06:46:50;24.40;45.00
53314;DHT22;39202;51.468;7.146;2022-10-20T06:51:54;24.40;44.90
53314;DHT22;39202;51.468;7.146;2022-10-20T06:56:55;24.30;44.70
53314;DHT22;39202;51.468;7.146;2022-10-20T07:01:57;24.30;44.70
53314;DHT22;39202;51.468;7.146;2022-10-20T07:07:02;24.30;44.70
53314;DHT22;39202;51.468;7.146;2022-10-20T07:12:04;24.30;44.90
53314;DHT22;39202;51.468;7.146;2022-10-20T07:17:06;24.30;45.10
53314;DHT22;39202;51.468;7.146;2022-10-20T07:22:09;24.30;45.10
53314;DHT22;39202;51.468;7.146;2022-10-20T07:27:10;24.40;45.20
53314;DHT22;39202;51.468;7.146;2022-10-20T07:32:12;24.40;45.20
53314;DHT22;39202;51.468;7.146;2022-10-20T07:37:15;24.40;45.30
53314;DHT22;39202;51.468;7.146;2022-10-20T07:42:17;24.50;45.30
53314;DHT22;39202;51.468;7.146;2022-10-20T07:47:19;24.50;45.30
53314;DHT22;39202;51.468;7.146;2022-10-20T07:52:22;24.60;45.40
53314;DHT22;39202;51.468;7.146;2022-10-20T07:57:24;24.60;45.40
53314;DHT22;39202;51.468;7.146;2022-10-20T08:02:25;24.70;45.40
53314;DHT22;39202;51.468;7.146;2022-10-20T08:07:28;24.70;45.50
53314;DHT22;39202;51.468;7.146;2022-10-20T08:12:30;24.80;45.50
53314;DHT22;39202;51.468;7.146;2022-10-20T08:17:32;24.80;45.50
53314;DHT22;39202;51.468;7.146;2022-10-20T08:22:35;24.90;45.50
53314;DHT22;39202;51.468;7.146;2022-10-20T08:27:37;25.00;45.50
53314;DHT22;39202;51.468;7.146;2022-10-20T08:32:39;25.00;45.40
53314;DHT22;39202;51.468;7.146;2022-10-20T08:37:42;25.00;45.40
53314;DHT22;39202;51.468;7.146;2022-10-20T08:42:44;25.00;45.80
53314;DHT22;39202;51.468;7.146;2022-10-20T08:47:48;25.10;45.50
53314;DHT22;39202;51.468;7.146;2022-10-20T08:52:54;25.10;45.50
53314;DHT22;39202;51.468;7.146;2022-10-20T08:58:00;25.10;45.50
53314;DHT22;39202;51.468;7.146;2022-10-20T09:03:12;25.20;45.50
53314;DHT22;39202;51.468;7.146;2022-10-20T09:08:25;25.20;45.30
53314;DHT22;39202;51.468;7.146;2022-10-20T09:13:29;25.20;45.30
53314;DHT22;39202;51.468;7.146;2022-10-20T09:18:32;25.20;45.30
53314;DHT22;39202;51.468;7.146;2022-10-20T09:23:38;25.20;45.30
53314;DHT22;39202;51.468;7.146;2022-10-20T09:28:40;25.20;45.30
53314;DHT22;39202;51.468;7.146;2022-10-20T09:33:41;25.30;45.40
53314;DHT22;39202;51.468;7.146;2022-10-20T09:38:47;25.30;45.30
53314;DHT22;39202;51.468;7.146;2022-10-20T09:43:54;25.30;45.20
53314;DHT22;39202;51.468;7.146;2022-10-20T09:48:57;25.30;45.20
53314;DHT22;39202;51.468;7.146;2022-10-20T09:54:02;25.30;45.20
53314;DHT22;39202;51.468;7.146;2022-10-20T09:59:07;25.30;45.20
53314;DHT22;39202;51.468;7.146;2022-10-20T10:04:29;25.30;45.20
53314;DHT22;39202;51.468;7.146;2022-10-20T10:09:35;25.30;45.30
53314;DHT22;39202;51.468;7.146;2022-10-20T10:14:47;25.30;45.20
53314;DHT22;39202;51.468;7.146;2022-10-20T10:19:49;25.30;45.20
53314;DHT22;39202;51.468;7.146;2022-10-20T10:24:54;25.30;45.10
53314;DHT22;39202;51.468;7.146;2022-10-20T10:30:23;25.30;45.10
53314;DHT22;39202;51.468;7.146;2022-10-20T10:35:28;25.30;45.10
53314;DHT22;39202;51.468;7.146;2022-10-20T10:40:35;25.30;45.10
53314;DHT22;39202;51.468;7.146;2022-10-20T10:45:43;25.30;45.10
53314;DHT22;39202;51.468;7.146;2022-10-20T10:50:50;25.30;45.10
53314;DHT22;39202;51.468;7.146;2022-10-20T10:55:59;25.30;45.10
53314;DHT22;39202;51.468;7.146;2022-10-20T11:06:35;25.30;45.10
53314;DHT22;39202;51.468;7.146;2022-10-20T11:12:06;25.30;45.10
53314;DHT22;39202;51.468;7.146;2022-10-20T11:17:27;25.30;45.00
53314;DHT22;39202;51.468;7.146;2022-10-20T11:22:39;25.30;45.00
53314;DHT22;39202;51.468;7.146;2022-10-20T11:27:45;25.30;45.00
53314;DHT22;39202;51.468;7.146;2022-10-20T11:32:50;25.30;45.00
53314;DHT22;39202;51.468;7.146;2022-10-20T11:37:56;25.20;44.90
53314;DHT22;39202;51.468;7.146;2022-10-20T11:43:10;25.30;45.00
53314;DHT22;39202;51.468;7.146;2022-10-20T11:48:19;25.20;44.90
53314;DHT22;39202;51.468;7.146;2022-10-20T11:53:33;25.20;44.90
53314;DHT22;39202;51.468;7.146;2022-10-20T11:58:57;25.20;44.90
53314;DHT22;39202;51.468;7.146;2022-10-20T12:04:17;25.20;44.90
53314;DHT22;39202;51.468;7.146;2022-10-20T12:09:46;25.20;44.90
53314;DHT22;39202;51.468;7.146;2022-10-20T12:14:56;25.20;45.00
53314;DHT22;39202;51.468;7.146;2022-10-20T12:25:40;25.20;45.30
53314;DHT22;39202;51.468;7.146;2022-10-20T12:30:52;25.20;45.30
53314;DHT22;39202;51.468;7.146;2022-10-20T12:35:59;25.20;45.40
53314;DHT22;39202;51.468;7.146;2022-10-20T12:41:25;25.30;45.40
53314;DHT22;39202;51.468;7.146;2022-10-20T12:46:30;25.30;45.50
53314;DHT22;39202;51.468;7.146;2022-10-20T12:51:35;25.30;45.50
53314;DHT22;39202;51.468;7.146;2022-10-20T12:56:40;25.30;45.50
53314;DHT22;39202;51.468;7.146;2022-10-20T13:13:42;25.30;45.70
53314;DHT22;39202;51.468;7.146;2022-10-20T13:18:45;25.40;45.80
53314;DHT22;39202;51.468;7.146;2022-10-20T13:23:55;25.40;45.70
53314;DHT22;39202;51.468;7.146;2022-10-20T13:29:00;25.40;45.70
53314;DHT22;39202;51.468;7.146;2022-10-20T13:34:06;25.40;45.70
53314;DHT22;39202;51.468;7.146;2022-10-20T13:39:17;25.40;45.80
53314;DHT22;39202;51.468;7.146;2022-10-20T13:44:29;25.40;45.80
53314;DHT22;39202;51.468;7.146;2022-10-20T13:49:46;25.50;45.90
53314;DHT22;39202;51.468;7.146;2022-10-20T13:54:50;25.50;45.90
53314;DHT22;39202;51.468;7.146;2022-10-20T13:59:58;25.50;45.80
53314;DHT22;39202;51.468;7.146;2022-10-20T14:05:02;25.50;45.80
53314;DHT22;39202;51.468;7.146;2022-10-20T14:10:06;25.60;45.90
53314;DHT22;39202;51.468;7.146;2022-10-20T14:15:13;25.50;45.80
53314;DHT22;39202;51.468;7.146;2022-10-20T14:20:19;25.60;45.90
53314;DHT22;39202;51.468;7.146;2022-10-20T14:25:21;25.60;45.80
53314;DHT22;39202;51.468;7.146;2022-10-20T14:30:25;25.60;45.60
53314;DHT22;39202;51.468;7.146;2022-10-20T14:35:30;25.60;45.40
53314;DHT22;39202;51.468;7.146;2022-10-20T14:40:34;25.60;45.30
53314;DHT22;39202;51.468;7.146;2022-10-20T14:45:37;25.60;45.30
53314;DHT22;39202;51.468;7.146;2022-10-20T14:50:39;25.50;45.20
53314;DHT22;39202;51.468;7.146;2022-10-20T14:55:41;25.50;45.20
53314;DHT22;39202;51.468;7.146;2022-10-20T15:00:44;25.50;45.20
53314;DHT22;39202;51.468;7.146;2022-10-20T15:05:51;25.50;45.30
53314;DHT22;39202;51.468;7.146;2022-10-20T15:10:53;25.50;45.20
53314;DHT22;39202;51.468;7.146;2022-10-20T15:15:58;25.50;45.30
53314;DHT22;39202;51.468;7.146;2022-10-20T15:21:00;25.50;45.20
53314;DHT22;39202;51.468;7.146;2022-10-20T15:26:04;25.40;45.20
53314;DHT22;39202;51.468;7.146;2022-10-20T15:31:19;25.40;45.20
53314;DHT22;39202;51.468;7.146;2022-10-20T15:36:23;25.60;45.30
53314;DHT22;39202;51.468;7.146;2022-10-20T15:41:30;25.30;45.10
53314;DHT22;39202;51.468;7.146;2022-10-20T15:46:34;25.30;45.80
53314;DHT22;39202;51.468;7.146;2022-10-20T15:51:36;25.30;45.10
53314;DHT22;39202;51.468;7.146;2022-10-20T15:56:39;25.30;45.20
53314;DHT22;39202;51.468;7.146;2022-10-20T16:01:42;25.30;45.20
53314;DHT22;39202;51.468;7.146;2022-10-20T16:06:44;25.30;45.20
53314;DHT22;39202;51.468;7.146;2022-10-20T16:11:46;25.30;45.20
53314;DHT22;39202;51.468;7.146;2022-10-20T16:16:49;25.20;45.20
53314;DHT22;39202;51.468;7.146;2022-10-20T16:21:51;25.20;45.20
53314;DHT22;39202;51.468;7.146;2022-10-20T16:26:53;25.20;45.20
53314;DHT22;39202;51.468;7.146;2022-10-20T16:31:56;25.20;45.20
53314;DHT22;39202;51.468;7.146;2022-10-20T16:36:58;25.20;45.20
53314;DHT22;39202;51.468;7.146;2022-10-20T16:42:00;25.20;45.80
53314;DHT22;39202;51.468;7.146;2022-10-20T16:47:03;25.10;45.10
53314;DHT22;39202;51.468;7.146;2022-10-20T16:52:05;25.20;45.20
53314;DHT22;39202;51.468;7.146;2022-10-20T16:57:06;25.20;45.10
53314;DHT22;39202;51.468;7.146;2022-10-20T17:02:12;25.10;45.10
53314;DHT22;39202;51.468;7.146;2022-10-20T17:07:13;25.10;45.10
53314;DHT22;39202;51.468;7.146;2022-10-20T17:12:15;25.10;45.10
53314;DHT22;39202;51.468;7.146;2022-10-20T17:17:19;25.10;45.70
53314;DHT22;39202;51.468;7.146;2022-10-20T17:22:20;25.10;45.10
53314;DHT22;39202;51.468;7.146;2022-10-20T17:27:22;25.10;45.10
53314;DHT22;39202;51.468;7.146;2022-10-20T17:32:25;25.10;45.10
53314;DHT22;39202;51.468;7.146;2022-10-20T17:37:27;25.10;45.20
53314;DHT22;39202;51.468;7.146;2022-10-20T17:42:28;25.00;45.10
53314;DHT22;39202;51.468;7.146;2022-10-20T17:47:33;25.00;45.20
53314;DHT22;39202;51.468;7.146;2022-10-20T17:52:35;25.00;45.10
53314;DHT22;39202;51.468;7.146;2022-10-20T17:57:37;25.00;45.00
53314;DHT22;39202;51.468;7.146;2022-10-20T18:02:45;25.00;45.20
53314;DHT22;39202;51.468;7.146;2022-10-20T18:07:47;25.00;45.20
53314;DHT22;39202;51.468;7.146;2022-10-20T18:12:48;25.00;45.20
53314;DHT22;39202;51.468;7.146;2022-10-20T18:17:51;25.00;45.20
53314;DHT22;39202;51.468;7.146;2022-10-20T18:22:53;24.90;45.20
53314;DHT22;39202;51.468;7.146;2022-10-20T18:27:55;24.90;45.20
53314;DHT22;39202;51.468;7.146;2022-10-20T18:32:58;24.90;45.20
53314;DHT22;39202;51.468;7.146;2022-10-20T18:38:00;24.90;45.20
53314;DHT22;39202;51.468;7.146;2022-10-20T18:43:01;24.90;45.20
53314;DHT22;39202;51.468;7.146;2022-10-20T18:48:05;24.90;45.20
53314;DHT22;39202;51.468;7.146;2022-10-20T18:53:06;24.90;45.20
53314;DHT22;39202;51.468;7.146;2022-10-20T18:58:08;24.90;45.20
53314;DHT22;39202;51.468;7.146;2022-10-20T19:03:11;24.90;45.20
53314;DHT22;39202;51.468;7.146;2022-10-20T19:08:13;24.90;45.20
53314;DHT22;39202;51.468;7.146;2022-10-20T19:13:15;24.80;45.20
53314;DHT22;39202;51.468;7.146;2022-10-20T19:18:18;24.80;45.20
53314;DHT22;39202;51.468;7.146;2022-10-20T19:23:19;24.80;45.20
53314;DHT22;39202;51.468;7.146;2022-10-20T19:28:21;24.80;45.20
53314;DHT22;39202;51.468;7.146;2022-10-20T19:33:25;24.80;45.20
53314;DHT22;39202;51.468;7.146;2022-10-20T19:38:27;24.80;45.20
53314;DHT22;39202;51.468;7.146;2022-10-20T19:43:28;24.80;45.20
53314;DHT22;39202;51.468;7.146;2022-10-20T19:48:33;24.80;45.20
53314;DHT22;39202;51.468;7.146;2022-10-20T19:53:35;24.80;45.20
53314;DHT22;39202;51.468;7.146;2022-10-20T19:58:38;24.80;45.20
53314;DHT22;39202;51.468;7.146;2022-10-20T20:03:41;24.80;45.30
53314;DHT22;39202;51.468;7.146;2022-10-20T20:08:45;24.80;45.20
53314;DHT22;39202;51.468;7.146;2022-10-20T20:13:47;24.70;45.20
53314;DHT22;39202;51.468;7.146;2022-10-20T20:18:50;24.70;45.20
53314;DHT22;39202;51.468;7.146;2022-10-20T20:23:53;24.70;45.20
53314;DHT22;39202;51.468;7.146;2022-10-20T20:28:56;24.70;45.20
53314;DHT22;39202;51.468;7.146;2022-10-20T20:34:00;24.70;45.20
53314;DHT22;39202;51.468;7.146;2022-10-20T20:39:02;24.70;45.20
53314;DHT22;39202;51.468;7.146;2022-10-20T20:44:03;24.70;45.20
53314;DHT22;39202;51.468;7.146;2022-10-20T20:49:07;24.70;45.20
53314;DHT22;39202;51.468;7.146;2022-10-20T20:54:09;24.70;45.20
53314;DHT22;39202;51.468;7.146;2022-10-20T20:59:12;24.70;45.20
53314;DHT22;39202;51.468;7.146;2022-10-20T21:04:15;24.70;45.20
53314;DHT22;39202;51.468;7.146;2022-10-20T21:09:16;24.70;45.30
53314;DHT22;39202;51.468;7.146;2022-10-20T21:14:18;24.70;45.80
53314;DHT22;39202;51.468;7.146;2022-10-20T21:19:21;24.70;45.10
53314;DHT22;39202;51.468;7.146;2022-10-20T21:24:23;24.70;45.20
53314;DHT22;39202;51.468;7.146;2022-10-20T21:29:25;24.60;45.20
53314;DHT22;39202;51.468;7.146;2022-10-20T21:34:28;24.60;45.20
53314;DHT22;39202;51.468;7.146;2022-10-20T21:39:30;24.60;45.20
53314;DHT22;39202;51.468;7.146;2022-10-20T21:44:32;24.60;45.20
53314;DHT22;39202;51.468;7.146;2022-10-20T21:49:35;24.60;45.20
53314;DHT22;39202;51.468;7.146;2022-10-20T21:54:37;24.00;44.90
53314;DHT22;39202;51.468;7.146;2022-10-20T21:59:39;24.60;45.20
53314;DHT22;39202;51.468;7.146;2022-10-20T22:04:42;24.60;45.30
53314;DHT22;39202;51.468;7.146;2022-10-20T22:09:44;24.60;45.30
53314;DHT22;39202;51.468;7.146;2022-10-20T22:14:46;24.60;45.30
53314;DHT22;39202;51.468;7.146;2022-10-20T22:19:49;24.60;45.30
53314;DHT22;39202;51.468;7.146;2022-10-20T22:24:50;24.60;45.30
53314;DHT22;39202;51.468;7.146;2022-10-20T22:29:52;24.60;45.30
53314;DHT22;39202;51.468;7.146;2022-10-20T22:34:55;24.60;45.30
53314;DHT22;39202;51.468;7.146;2022-10-20T22:39:57;24.60;45.30
53314;DHT22;39202;51.468;7.146;2022-10-20T22:44:58;24.60;45.30
53314;DHT22;39202;51.468;7.146;2022-10-20T22:50:02;24.50;45.20
53314;DHT22;39202;51.468;7.146;2022-10-20T22:55:04;24.50;45.30
53314;DHT22;39202;51.468;7.146;2022-10-20T23:00:07;24.50;45.30
53314;DHT22;39202;51.468;7.146;2022-10-20T23:05:10;24.50;45.30
53314;DHT22;39202;51.468;7.146;2022-10-20T23:10:12;24.50;45.30
53314;DHT22;39202;51.468;7.146;2022-10-20T23:20:18;24.60;45.30
53314;DHT22;39202;51.468;7.146;2022-10-20T23:25:19;24.50;45.30
53314;DHT22;39202;51.468;7.146;2022-10-20T23:30:21;24.50;45.30
53314;DHT22;39202;51.468;7.146;2022-10-20T23:35:24;24.50;45.30
53314;DHT22;39202;51.468;7.146;2022-10-20T23:40:26;24.50;45.40
53314;DHT22;39202;51.468;7.146;2022-10-20T23:45:27;24.50;45.30
53314;DHT22;39202;51.468;7.146;2022-10-20T23:50:30;24.50;45.30
53314;DHT22;39202;51.468;7.146;2022-10-20T23:55:32;24.50;45.30
